Pagrindinis puslapis
METAR-TAF:

METAR-TAF

Oro uostai :

Hartness State Airport

Springfield, Vermontas, Jungtinės Amerikos Valstijos

platuma: 43-20-33N, ilguma: 072-31-18W, Aukštis: 175 m

Dabartinis oras

Ataskaita buvo paskelbta 29 minutes, ne 06:54 UTC
Vėjas 11 kt iš Vakarų/Pietvakarių su gūsio iki 21 kt
Temperatūra -4°C
Drėgmė 49%
Slėgis 1002 hPa
Matomumas: 16.1 km
Su prošvaistėmis ne aukštis 4700 ft
Apsiniaukę ne aukštis 5500 ft

METAR: KVSF 280654Z AUTO 24011G21KT 10SM BKN047 OVC055 M04/M13 A2959 RMK AO2 PK WND 25026/0637 SLP028 T10441133

Laikas: 02:23 (07:23 UTC)


TAF: trūkstamas

Orai ataskaitas ir orų prognozės (METAR, TAF).

turimą stotys yra geltonos ir raudonos taškus žemėlapyje.

Perkelti pele per norėdami pamatyti stoties vardą.

Tada spustelėkite, norėdami matyti oro stebėjimo ir prognozės.

Norėdami pakeisti žemėlapį: spustelėkite ant žalios mygtukų su juodo kryžiaus žemyn,; žalią mygtuką su brūkšneliu, jei norite nutolinti; arba žalių rodyklių gretimoms žemėlapius.


METAR-TAF: